createdAt,value
2022-08-08T00:01:08.734Z,58.70
2022-08-08T00:03:48.257Z,58.60
2022-08-08T00:06:34.796Z,58.70
2022-08-08T00:09:09.348Z,59.00
2022-08-08T00:11:46.901Z,59.10
2022-08-08T00:14:58.642Z,58.90
2022-08-08T00:18:01.908Z,59.20
2022-08-08T00:20:34.153Z,59.00
2022-08-08T00:23:09.175Z,59.10
2022-08-08T00:25:46.597Z,59.00
2022-08-08T00:28:34.078Z,59.30
2022-08-08T00:32:20.873Z,59.30
2022-08-08T00:34:19.839Z,59.40
2022-08-08T00:37:03.705Z,59.50
2022-08-08T00:41:12.221Z,59.40
2022-08-08T00:43:19.898Z,59.70
2022-08-08T00:46:57.252Z,59.70
2022-08-08T00:49:59.266Z,59.70
2022-08-08T00:52:53.980Z,59.90
2022-08-08T00:56:12.961Z,60.10
2022-08-08T00:59:14.451Z,60.40
2022-08-08T01:02:01.809Z,60.10
2022-08-08T01:05:29.307Z,60.00
2022-08-08T01:08:39.445Z,60.10
2022-08-08T01:11:51.968Z,60.30
2022-08-08T01:15:06.749Z,60.50
2022-08-08T01:18:03.474Z,60.50
2022-08-08T01:20:44.317Z,60.60
2022-08-08T01:24:16.511Z,60.50
2022-08-08T01:27:21.403Z,60.80
2022-08-08T01:30:41.203Z,61.00
2022-08-08T01:33:54.262Z,61.00
2022-08-08T01:37:01.941Z,61.00
2022-08-08T01:39:55.221Z,61.00
2022-08-08T01:42:36.771Z,61.10
2022-08-08T01:45:26.321Z,61.30
2022-08-08T01:48:16.599Z,61.30
2022-08-08T01:51:30.626Z,61.30
2022-08-08T01:55:26.622Z,61.40
2022-08-08T01:57:21.707Z,62.20
2022-08-08T02:00:13.130Z,61.40
2022-08-08T02:03:57.413Z,61.60
2022-08-08T02:06:36.731Z,61.70
2022-08-08T02:10:02.274Z,61.80
2022-08-08T02:12:21.615Z,61.80
2022-08-08T02:14:59.626Z,62.10
2022-08-08T02:17:42.958Z,62.30
2022-08-08T02:21:01.311Z,61.90
2022-08-08T02:23:25.480Z,62.00
2022-08-08T02:26:08.305Z,62.20
2022-08-08T02:28:51.767Z,62.10
2022-08-08T02:31:59.506Z,62.10
2022-08-08T02:35:11.376Z,62.30
2022-08-08T02:38:25.576Z,62.20
2022-08-08T02:42:03.602Z,62.20
2022-08-08T02:45:03.918Z,62.40
2022-08-08T02:48:25.893Z,62.40
2022-08-08T02:51:57.222Z,62.50
2022-08-08T02:54:56.861Z,62.60
2022-08-08T02:58:06.725Z,62.60
2022-08-08T03:00:58.586Z,62.70
2022-08-08T03:05:05.417Z,62.70
2022-08-08T03:07:41.312Z,62.70
2022-08-08T03:10:44.443Z,62.70
2022-08-08T03:15:57.761Z,62.90
2022-08-08T03:16:49.229Z,62.60
2022-08-08T03:19:50.841Z,62.80
2022-08-08T03:22:38.233Z,62.80
2022-08-08T03:25:18.024Z,62.90
2022-08-08T03:27:56.470Z,62.90
2022-08-08T03:30:27.287Z,63.10
2022-08-08T03:33:54.855Z,63.00
2022-08-08T03:36:04.033Z,63.30
2022-08-08T03:38:56.431Z,63.30
2022-08-08T03:42:27.598Z,63.10
2022-08-08T03:44:25.556Z,63.10
2022-08-08T03:46:54.968Z,63.20
2022-08-08T03:50:00.536Z,63.40
2022-08-08T03:52:17.070Z,63.30
2022-08-08T03:55:02.667Z,63.20
2022-08-08T03:58:09.610Z,63.50
2022-08-08T04:00:30.485Z,63.60
2022-08-08T04:03:11.612Z,63.50
2022-08-08T04:05:48.060Z,63.60
2022-08-08T04:08:33.763Z,63.80
2022-08-08T04:11:11.474Z,63.60
2022-08-08T04:14:04.070Z,63.60
2022-08-08T04:16:40.596Z,63.70
2022-08-08T04:19:23.757Z,63.70
2022-08-08T04:21:57.385Z,63.70
2022-08-08T04:24:29.648Z,63.90
2022-08-08T04:27:01.047Z,64.20
2022-08-08T04:29:33.139Z,64.20
2022-08-08T04:32:07.701Z,64.00
2022-08-08T04:34:49.503Z,64.00
2022-08-08T04:37:32.333Z,64.40
2022-08-08T04:40:07.939Z,64.10
2022-08-08T04:42:46.585Z,64.20
2022-08-08T04:45:29.754Z,64.50
2022-08-08T04:48:00.841Z,64.60
2022-08-08T04:50:38.396Z,64.60
2022-08-08T04:53:52.049Z,64.60
2022-08-08T04:55:59.170Z,64.30
2022-08-08T04:58:31.573Z,63.90
2022-08-08T05:01:06.013Z,63.90
2022-08-08T05:04:09.188Z,63.60
2022-08-08T05:06:29.098Z,63.70
2022-08-08T05:09:02.669Z,63.90
2022-08-08T05:11:38.587Z,64.00
2022-08-08T05:14:08.562Z,63.90
2022-08-08T05:16:51.608Z,63.60
2022-08-08T05:20:10.852Z,63.30
2022-08-08T05:22:14.173Z,63.30
2022-08-08T05:24:48.662Z,63.60
2022-08-08T05:27:19.317Z,63.00
2022-08-08T05:29:51.922Z,63.40
2022-08-08T05:32:27.012Z,63.60
2022-08-08T05:35:01.587Z,63.70
2022-08-08T05:37:51.879Z,63.80
2022-08-08T05:40:28.704Z,63.40
2022-08-08T05:43:38.309Z,64.50
2022-08-08T05:46:03.975Z,63.90
2022-08-08T05:48:41.689Z,64.20
2022-08-08T05:51:13.539Z,63.90
2022-08-08T05:54:24.995Z,63.50
2022-08-08T05:56:42.724Z,63.60
2022-08-08T06:00:00.731Z,63.20
2022-08-08T06:02:43.405Z,63.20
2022-08-08T06:05:34.045Z,63.30
2022-08-08T06:08:10.268Z,63.40
2022-08-08T06:10:58.151Z,63.20
2022-08-08T06:13:29.940Z,63.40
2022-08-08T06:16:05.109Z,62.50
2022-08-08T06:18:56.829Z,62.30
2022-08-08T06:21:33.177Z,62.10
2022-08-08T06:24:23.220Z,62.50
2022-08-08T06:27:04.031Z,62.40
2022-08-08T06:29:56.895Z,61.90
2022-08-08T06:32:31.283Z,61.80
2022-08-08T06:36:01.054Z,62.40
2022-08-08T06:38:01.740Z,62.10
2022-08-08T06:40:36.955Z,62.70
2022-08-08T06:43:15.906Z,62.60
2022-08-08T06:45:54.086Z,61.80
2022-08-08T06:48:26.465Z,61.70
2022-08-08T06:50:55.603Z,61.80
2022-08-08T06:53:39.541Z,62.30
2022-08-08T06:56:11.414Z,61.70
2022-08-08T06:58:44.584Z,61.20
2022-08-08T07:02:17.323Z,61.20
2022-08-08T07:04:39.782Z,61.70
2022-08-08T07:07:10.625Z,60.60
2022-08-08T07:09:59.211Z,59.10
2022-08-08T07:12:39.718Z,58.30
2022-08-08T07:15:32.148Z,57.30
2022-08-08T07:18:36.290Z,56.10
2022-08-08T07:20:57.913Z,55.80
2022-08-08T07:24:01.466Z,55.10
2022-08-08T07:26:35.376Z,53.80
2022-08-08T07:29:08.303Z,53.40
2022-08-08T07:31:43.263Z,52.70
2022-08-08T07:34:26.651Z,53.80
2022-08-08T07:37:12.078Z,53.90
2022-08-08T07:39:56.080Z,52.30
2022-08-08T07:42:34.460Z,53.00
2022-08-08T07:45:07.551Z,52.70
2022-08-08T07:47:39.954Z,53.40
2022-08-08T07:50:23.321Z,53.40
2022-08-08T07:53:01.230Z,50.80
2022-08-08T07:55:36.712Z,48.60
2022-08-08T07:58:19.926Z,48.20
2022-08-08T08:00:52.029Z,46.00
2022-08-08T08:03:43.250Z,45.30
2022-08-08T08:06:14.734Z,42.50
2022-08-08T08:08:50.228Z,40.40
2022-08-08T08:11:23.286Z,40.00
2022-08-08T08:14:08.032Z,40.00
2022-08-08T08:16:48.528Z,40.40
2022-08-08T08:19:21.253Z,39.30
2022-08-08T08:21:57.819Z,38.00
2022-08-08T08:24:46.670Z,37.40
2022-08-08T08:27:17.639Z,35.90
2022-08-08T08:29:51.896Z,34.90
2022-08-08T08:32:31.850Z,35.30
2022-08-08T08:35:07.643Z,34.30
2022-08-08T08:37:59.249Z,34.00
2022-08-08T08:40:27.234Z,33.20
2022-08-08T08:42:57.395Z,32.10
2022-08-08T08:45:27.769Z,33.10
2022-08-08T08:48:01.424Z,34.10
2022-08-08T08:50:35.920Z,35.20
2022-08-08T08:53:28.219Z,34.60
2022-08-08T08:56:08.961Z,37.10
2022-08-08T08:58:43.407Z,35.80
2022-08-08T09:01:24.751Z,35.30
2022-08-08T09:03:56.828Z,36.10
2022-08-08T09:06:34.465Z,34.90
2022-08-08T09:09:26.358Z,33.70
2022-08-08T09:12:08.309Z,34.00
2022-08-08T09:14:42.517Z,34.10
2022-08-08T09:17:19.060Z,36.10
2022-08-08T09:21:59.387Z,34.40
2022-08-08T09:22:39.294Z,33.40
2022-08-08T09:25:10.527Z,32.90
2022-08-08T09:27:56.979Z,34.00
2022-08-08T09:30:29.739Z,34.00
2022-08-08T09:33:11.904Z,33.40
2022-08-08T09:35:51.365Z,33.60
2022-08-08T09:38:34.891Z,33.20
2022-08-08T09:41:33.627Z,34.10
2022-08-08T09:44:29.771Z,34.10
2022-08-08T09:48:05.041Z,32.90
2022-08-08T09:50:03.949Z,32.90
2022-08-08T09:52:59.091Z,31.90
2022-08-08T09:55:51.888Z,31.60
2022-08-08T09:58:26.180Z,32.40
2022-08-08T10:01:15.135Z,34.10
2022-08-08T10:03:56.019Z,33.90
2022-08-08T10:06:29.649Z,31.20
2022-08-08T10:08:58.070Z,31.80
2022-08-08T10:12:28.081Z,31.50
2022-08-08T10:14:28.201Z,32.60
2022-08-08T10:17:38.729Z,33.80
2022-08-08T10:20:00.167Z,34.20
2022-08-08T10:22:30.962Z,32.80
2022-08-08T10:25:05.382Z,35.30
2022-08-08T10:27:42.581Z,36.00
2022-08-08T10:30:16.591Z,36.80
2022-08-08T10:33:01.572Z,37.10
2022-08-08T10:36:08.801Z,36.40
2022-08-08T10:38:22.780Z,35.00
2022-08-08T10:40:53.605Z,37.30
2022-08-08T10:43:23.437Z,36.30
2022-08-08T10:45:57.175Z,36.60
2022-08-08T10:48:38.706Z,35.60
2022-08-08T10:51:24.118Z,37.40
2022-08-08T10:53:59.556Z,34.40
2022-08-08T10:56:35.970Z,33.90
2022-08-08T10:59:09.268Z,31.50
2022-08-08T11:01:39.740Z,33.10
2022-08-08T11:04:10.822Z,34.30
2022-08-08T11:06:41.951Z,36.70
2022-08-08T11:09:21.450Z,35.70
2022-08-08T11:12:06.439Z,35.70
2022-08-08T11:14:56.953Z,36.60
2022-08-08T11:17:59.385Z,36.50
2022-08-08T11:20:18.173Z,36.80
2022-08-08T11:22:52.423Z,36.30
2022-08-08T11:25:52.615Z,36.40
2022-08-08T11:28:15.273Z,36.70
2022-08-08T11:30:50.034Z,37.30
2022-08-08T11:33:51.635Z,37.20
2022-08-08T11:36:14.899Z,38.00
2022-08-08T11:38:55.620Z,38.70
2022-08-08T11:41:28.286Z,38.50
2022-08-08T11:44:01.877Z,38.70
2022-08-08T11:46:32.731Z,38.50
2022-08-08T11:49:05.240Z,39.50
2022-08-08T11:51:39.911Z,37.50
2022-08-08T11:54:31.295Z,36.90
2022-08-08T11:57:14.455Z,37.30
2022-08-08T12:00:01.037Z,38.00
2022-08-08T12:02:48.441Z,38.40
2022-08-08T12:05:22.728Z,38.10
2022-08-08T12:07:56.089Z,39.30
2022-08-08T12:10:26.626Z,37.90
2022-08-08T12:13:04.579Z,38.10
2022-08-08T12:15:40.092Z,40.10
2022-08-08T12:18:17.990Z,40.70
2022-08-08T12:20:49.866Z,38.40
2022-08-08T12:23:40.007Z,38.90
2022-08-08T12:26:16.834Z,39.00
2022-08-08T12:28:57.124Z,39.90
2022-08-08T12:31:39.459Z,40.90
2022-08-08T12:34:41.143Z,39.00
2022-08-08T12:37:12.164Z,39.90
2022-08-08T12:40:00.675Z,39.60
2022-08-08T12:42:33.970Z,39.50
2022-08-08T12:45:11.590Z,39.70
2022-08-08T12:48:10.243Z,38.10
2022-08-08T12:50:51.330Z,38.30
2022-08-08T12:53:21.259Z,38.70
2022-08-08T12:56:17.496Z,37.00
2022-08-08T12:58:49.848Z,38.30
2022-08-08T13:01:24.663Z,38.20
2022-08-08T13:04:18.422Z,36.90
2022-08-08T13:07:02.781Z,37.40
2022-08-08T13:09:43.286Z,38.90
2022-08-08T13:12:29.075Z,39.20
2022-08-08T13:15:00.897Z,37.40
2022-08-08T13:18:08.335Z,37.50
2022-08-08T13:20:21.834Z,37.70
2022-08-08T13:22:51.570Z,38.00
2022-08-08T13:25:28.063Z,39.80
2022-08-08T13:28:00.721Z,38.00
2022-08-08T13:30:29.231Z,38.30
2022-08-08T13:33:01.308Z,38.70
2022-08-08T13:35:38.675Z,38.60
2022-08-08T13:38:13.175Z,38.30
2022-08-08T13:40:45.011Z,38.50
2022-08-08T13:43:13.838Z,38.00
2022-08-08T13:45:47.499Z,37.80
2022-08-08T13:48:19.597Z,38.30
2022-08-08T13:50:57.942Z,38.90
2022-08-08T13:53:53.334Z,39.80
2022-08-08T13:56:41.527Z,39.10
2022-08-08T13:59:13.112Z,39.20
2022-08-08T14:01:56.628Z,37.30
2022-08-08T14:04:28.600Z,37.90
2022-08-08T14:07:00.127Z,38.00
2022-08-08T14:10:02.243Z,37.80
2022-08-08T14:12:27.828Z,36.80
2022-08-08T14:14:56.553Z,38.40
2022-08-08T14:17:57.277Z,37.40
2022-08-08T14:20:38.937Z,38.30
2022-08-08T14:23:10.439Z,38.40
2022-08-08T14:25:54.091Z,38.00
2022-08-08T14:28:28.900Z,39.30
2022-08-08T14:31:09.302Z,39.90
2022-08-08T14:33:39.060Z,38.00
2022-08-08T14:36:11.443Z,39.20
2022-08-08T14:38:52.812Z,38.50
2022-08-08T14:41:45.163Z,38.10
2022-08-08T14:44:22.547Z,38.90
2022-08-08T14:47:00.968Z,38.30
2022-08-08T14:49:37.912Z,37.20
2022-08-08T14:52:24.391Z,38.50
2022-08-08T14:54:52.527Z,38.10
2022-08-08T14:57:24.206Z,37.70
2022-08-08T15:00:10.480Z,37.80
2022-08-08T15:03:10.588Z,38.60
2022-08-08T15:05:43.249Z,38.60
2022-08-08T15:08:22.507Z,38.30
2022-08-08T15:11:02.256Z,39.00
2022-08-08T15:13:34.978Z,38.90
2022-08-08T15:16:11.967Z,38.90
2022-08-08T15:18:44.006Z,39.10
2022-08-08T15:21:18.307Z,40.40
2022-08-08T15:23:50.921Z,38.50
2022-08-08T15:26:19.882Z,38.80
2022-08-08T15:28:53.171Z,38.70
2022-08-08T15:31:56.306Z,38.60
2022-08-08T15:34:30.123Z,38.40
2022-08-08T15:36:58.568Z,37.40
2022-08-08T15:39:31.568Z,37.10
2022-08-08T15:42:13.271Z,37.50
2022-08-08T15:44:46.675Z,38.00
2022-08-08T15:47:19.186Z,39.90
2022-08-08T15:49:48.959Z,38.10
2022-08-08T15:52:20.669Z,38.30
2022-08-08T15:54:52.610Z,38.20
2022-08-08T15:57:21.852Z,37.60
2022-08-08T16:00:06.512Z,36.60
2022-08-08T16:02:50.722Z,34.80
2022-08-08T16:05:21.060Z,35.70
2022-08-08T16:07:52.598Z,37.70
2022-08-08T16:13:08.803Z,37.30
2022-08-08T16:13:30.261Z,37.30
2022-08-08T16:16:08.984Z,37.70
2022-08-08T16:18:41.680Z,37.30
2022-08-08T16:21:25.937Z,36.90
2022-08-08T16:23:56.119Z,38.70
2022-08-08T16:26:34.078Z,37.30
2022-08-08T16:29:09.452Z,37.20
2022-08-08T16:31:40.855Z,38.00
2022-08-08T16:34:09.989Z,38.70
2022-08-08T16:36:38.817Z,38.70
2022-08-08T16:39:27.974Z,38.30
2022-08-08T16:42:01.370Z,38.40
2022-08-08T16:44:34.199Z,39.00
2022-08-08T16:47:21.733Z,39.00
2022-08-08T16:50:01.425Z,38.60
2022-08-08T16:55:00.741Z,38.00
2022-08-08T16:55:54.481Z,37.80
2022-08-08T16:58:14.528Z,39.10
2022-08-08T17:00:48.958Z,38.20
2022-08-08T17:03:25.285Z,39.10
2022-08-08T17:06:35.607Z,38.20
2022-08-08T17:08:56.847Z,38.20
2022-08-08T17:11:27.928Z,38.70
2022-08-08T17:14:00.884Z,38.60
2022-08-08T17:16:30.050Z,39.90
2022-08-08T17:19:00.614Z,39.80
2022-08-08T17:21:41.284Z,40.00
2022-08-08T17:24:20.592Z,40.40
2022-08-08T17:26:58.020Z,40.90
2022-08-08T17:29:28.477Z,41.70
2022-08-08T17:32:02.623Z,42.60
2022-08-08T17:34:37.696Z,43.30
2022-08-08T17:37:19.463Z,42.90
2022-08-08T17:40:10.838Z,43.20
2022-08-08T17:42:35.846Z,43.10
2022-08-08T17:45:07.186Z,43.60
2022-08-08T17:47:42.797Z,44.50
2022-08-08T17:50:19.823Z,44.10
2022-08-08T17:52:48.025Z,44.10
2022-08-08T17:56:05.299Z,44.60
2022-08-08T17:58:04.178Z,44.70
2022-08-08T18:00:33.610Z,45.00
2022-08-08T18:03:13.808Z,46.10
2022-08-08T18:05:49.864Z,45.60
2022-08-08T18:08:24.586Z,45.50
2022-08-08T18:11:08.281Z,45.20
2022-08-08T18:13:42.098Z,44.90
2022-08-08T18:16:12.724Z,45.00
2022-08-08T18:18:42.836Z,45.30
2022-08-08T18:21:35.371Z,45.50
2022-08-08T18:24:02.076Z,46.10
2022-08-08T18:26:30.706Z,46.30
2022-08-08T18:28:58.854Z,46.60
2022-08-08T18:31:30.046Z,46.80
2022-08-08T18:34:25.173Z,47.50
2022-08-08T18:36:47.611Z,48.10
2022-08-08T18:39:27.246Z,48.90
2022-08-08T18:42:03.348Z,49.40
2022-08-08T18:44:35.909Z,49.90
2022-08-08T18:47:06.014Z,50.20
2022-08-08T18:49:54.826Z,50.80
2022-08-08T18:52:23.622Z,51.10
2022-08-08T18:55:00.131Z,51.60
2022-08-08T18:57:41.824Z,51.80
2022-08-08T19:00:16.732Z,52.10
2022-08-08T19:02:55.245Z,52.30
2022-08-08T19:05:32.470Z,52.60
2022-08-08T19:08:23.879Z,52.80
2022-08-08T19:10:55.524Z,53.20
2022-08-08T19:13:25.089Z,53.50
2022-08-08T19:15:55.958Z,53.60
2022-08-08T19:18:32.372Z,53.90
2022-08-08T19:21:23.047Z,54.10
2022-08-08T19:23:59.618Z,54.20
2022-08-08T19:26:31.027Z,54.30
2022-08-08T19:28:59.922Z,54.50
2022-08-08T19:31:31.339Z,54.60
2022-08-08T19:34:36.694Z,54.70
2022-08-08T19:36:55.313Z,54.80
2022-08-08T19:39:26.352Z,54.90
2022-08-08T19:42:04.517Z,55.00
2022-08-08T19:44:43.007Z,55.20
2022-08-08T19:47:14.371Z,55.10
2022-08-08T19:50:00.534Z,55.20
2022-08-08T19:52:37.077Z,55.50
2022-08-08T19:55:11.262Z,55.70
2022-08-08T19:57:41.112Z,55.60
2022-08-08T20:00:29.798Z,55.50
2022-08-08T20:03:00.530Z,55.80
2022-08-08T20:06:14.819Z,55.80
2022-08-08T20:08:28.908Z,56.10
2022-08-08T20:11:00.764Z,56.10
2022-08-08T20:14:11.774Z,56.30
2022-08-08T20:16:18.213Z,56.50
2022-08-08T20:18:52.810Z,56.70
2022-08-08T20:21:25.541Z,56.90
2022-08-08T20:23:57.661Z,57.10
2022-08-08T20:26:30.102Z,57.20
2022-08-08T20:29:02.039Z,57.60
2022-08-08T20:31:46.981Z,57.90
2022-08-08T20:34:29.111Z,57.90
2022-08-08T20:37:02.441Z,58.10
2022-08-08T20:39:39.018Z,58.30
2022-08-08T20:42:23.643Z,58.30
2022-08-08T20:44:56.493Z,58.30
2022-08-08T20:47:25.310Z,58.50
2022-08-08T20:49:57.596Z,58.60
2022-08-08T20:52:30.337Z,58.60
2022-08-08T20:54:58.917Z,58.70
2022-08-08T20:57:27.916Z,59.00
2022-08-08T20:59:56.357Z,59.00
2022-08-08T21:02:25.850Z,59.00
2022-08-08T21:04:57.384Z,59.10
2022-08-08T21:08:00.737Z,59.40
2022-08-08T21:10:20.810Z,59.50
2022-08-08T21:12:52.869Z,59.50
2022-08-08T21:16:06.259Z,59.60
2022-08-08T21:18:12.166Z,59.90
2022-08-08T21:20:42.355Z,59.80
2022-08-08T21:23:13.167Z,59.80
2022-08-08T21:25:48.896Z,59.90
2022-08-08T21:28:33.302Z,60.00
2022-08-08T21:31:22.106Z,60.30
2022-08-08T21:33:51.666Z,60.30
2022-08-08T21:36:21.907Z,60.50
2022-08-08T21:38:58.614Z,60.70
2022-08-08T21:41:38.276Z,61.00
2022-08-08T21:44:15.882Z,61.00
2022-08-08T21:48:08.060Z,61.00
2022-08-08T21:49:33.982Z,61.30
2022-08-08T21:54:31.175Z,61.40
2022-08-08T21:55:02.498Z,61.50
2022-08-08T21:57:41.706Z,61.60
2022-08-08T22:00:12.426Z,62.00
2022-08-08T22:02:43.062Z,62.00
2022-08-08T22:05:15.014Z,61.90
2022-08-08T22:07:48.689Z,62.00
2022-08-08T22:10:32.009Z,62.10
2022-08-08T22:13:17.925Z,62.30
2022-08-08T22:15:59.794Z,62.60
2022-08-08T22:18:30.939Z,62.60
2022-08-08T22:21:01.665Z,62.30
2022-08-08T22:23:50.377Z,62.30
2022-08-08T22:26:29.902Z,62.40
2022-08-08T22:29:13.855Z,62.20
2022-08-08T22:32:01.665Z,62.00
2022-08-08T22:34:32.356Z,62.10
2022-08-08T22:37:00.603Z,61.80
2022-08-08T22:39:45.650Z,62.20
2022-08-08T22:42:27.379Z,62.10
2022-08-08T22:44:59.782Z,62.00
2022-08-08T22:47:38.259Z,62.20
2022-08-08T22:50:27.378Z,62.10
2022-08-08T22:53:22.594Z,62.10
2022-08-08T22:55:57.791Z,62.20
2022-08-08T22:58:33.065Z,62.40
2022-08-08T23:01:02.791Z,62.30
2022-08-08T23:03:53.979Z,62.40
2022-08-08T23:06:23.416Z,62.60
2022-08-08T23:08:55.020Z,63.00
2022-08-08T23:11:31.162Z,62.90
2022-08-08T23:14:14.759Z,63.10
2022-08-08T23:16:48.096Z,63.40
2022-08-08T23:19:22.631Z,63.50
2022-08-08T23:21:50.665Z,63.60
2022-08-08T23:24:23.038Z,63.60
2022-08-08T23:26:55.254Z,63.70
2022-08-08T23:29:27.225Z,63.80
2022-08-08T23:31:59.440Z,64.10
2022-08-08T23:34:29.322Z,64.10
2022-08-08T23:36:59.793Z,64.20
2022-08-08T23:39:41.724Z,64.50
2022-08-08T23:42:17.423Z,64.90
2022-08-08T23:44:51.019Z,65.00
2022-08-08T23:49:03.472Z,65.20
2022-08-08T23:50:29.949Z,65.30
2022-08-08T23:52:58.907Z,65.50
2022-08-08T23:55:41.979Z,65.60
2022-08-08T23:58:31.797Z,65.80
